Time;durP1;ratioP1;P1;durP2;ratioP2;P2;SDS_P1;SDS_P2;PMS_P1;PMS_P2;Temp;Humidity;BMP_temperature;BMP_pressure;BME280_temperature;BME280_humidity;BME280_pressure;Samples;Min_cycle;Max_cycle;Signal;HPM_P1;HPM_P2
2023/04/16 00:00:37;;;;;;;8.33;2.20;;;21.60;99.90;;;;;;5091704;28;20222;-71
2023/04/16 00:03:05;;;;;;;5.33;2.43;;;21.70;99.90;;;;;;5094215;28;20621;-71
2023/04/16 00:05:33;;;;;;;2.10;1.50;;;21.70;99.90;;;;;;5095386;28;20186;-71
2023/04/16 00:08:00;;;;;;;4.50;1.67;;;21.70;99.90;;;;;;5094310;28;20550;-72
2023/04/16 00:10:28;;;;;;;5.33;2.03;;;21.80;99.90;;;;;;5096027;28;20173;-72
2023/04/16 00:12:56;;;;;;;5.10;2.33;;;21.90;99.90;;;;;;5095116;28;20206;-72
2023/04/16 00:15:24;;;;;;;4.37;1.73;;;22.10;99.90;;;;;;5095497;28;20175;-71
2023/04/16 00:17:52;;;;;;;5.40;1.93;;;22.40;99.90;;;;;;5095471;28;20607;-72
2023/04/16 00:20:20;;;;;;;3.27;1.83;;;22.50;99.90;;;;;;5094780;28;20240;-72
2023/04/16 00:22:47;;;;;;;3.87;1.90;;;22.60;99.90;;;;;;5095228;28;20650;-71
2023/04/16 00:25:15;;;;;;;3.40;1.57;;;23.70;99.90;;;;;;5095310;28;20251;-71
2023/04/16 00:27:43;;;;;;;2.87;1.60;;;25.00;99.90;;;;;;5108472;28;20182;-71
2023/04/16 00:30:11;;;;;;;3.57;1.50;;;25.40;99.90;;;;;;5099998;28;20269;-72
2023/04/16 00:32:38;;;;;;;3.20;1.80;;;25.90;99.90;;;;;;5119309;28;20174;-71
2023/04/16 00:35:07;;;;;;;7.47;2.20;;;26.00;99.90;;;;;;5114910;28;20204;-71
2023/04/16 00:37:34;;;;;;;2.17;1.30;;;25.80;99.90;;;;;;5114690;28;20589;-71
2023/04/16 00:40:02;;;;;;;3.73;1.70;;;25.40;99.90;;;;;;5114480;28;20218;-70
2023/04/16 00:42:30;;;;;;;4.07;1.67;;;25.30;99.90;;;;;;5098885;28;20182;-71
2023/04/16 00:44:58;;;;;;;4.37;1.47;;;25.70;99.90;;;;;;5094742;28;20179;-71
2023/04/16 00:47:26;;;;;;;1.90;1.23;;;26.10;99.90;;;;;;5094847;28;20179;-72
2023/04/16 00:49:54;;;;;;;3.03;1.40;;;26.20;99.90;;;;;;5102526;28;20602;-72
2023/04/16 00:52:22;;;;;;;8.10;2.27;;;26.00;99.90;;;;;;5112816;28;20182;-71
2023/04/16 00:54:50;;;;;;;2.80;1.27;;;25.20;99.90;;;;;;5114761;28;20248;-71
2023/04/16 00:57:19;;;;;;;5.33;1.80;;;24.90;99.90;;;;;;5114645;28;20178;-70
2023/04/16 00:59:47;;;;;;;4.37;1.47;;;24.60;99.90;;;;;;5108161;28;20737;-71
2023/04/16 01:02:15;;;;;;;2.43;1.33;;;24.40;99.90;;;;;;5110708;28;20202;-71
2023/04/16 01:04:43;;;;;;;3.50;1.80;;;24.20;99.90;;;;;;5114298;28;20697;-71
2023/04/16 01:07:11;;;;;;;12.87;2.40;;;24.30;99.90;;;;;;5114986;28;20177;-72
2023/04/16 01:09:39;;;;;;;5.27;2.10;;;24.40;99.90;;;;;;5114656;28;20552;-71
2023/04/16 01:12:06;;;;;;;2.40;1.57;;;24.40;99.90;;;;;;5113824;28;20175;-72
2023/04/16 01:14:35;;;;;;;2.63;1.30;;;24.60;99.90;;;;;;5112935;28;20657;-72
2023/04/16 01:17:03;;;;;;;5.93;2.50;;;24.70;99.90;;;;;;5113838;28;20174;-71
2023/04/16 01:19:31;;;;;;;9.23;4.90;;;24.80;99.90;;;;;;5093749;28;20215;-72
2023/04/16 01:21:59;;;;;;;14.90;8.70;;;24.90;99.90;;;;;;5096823;28;20704;-72
2023/04/16 01:24:27;;;;;;;9.40;4.70;;;25.00;99.90;;;;;;5097520;28;20677;-71
2023/04/16 01:26:56;;;;;;;7.83;3.87;;;25.20;99.90;;;;;;5101660;28;20175;-69
2023/04/16 01:29:24;;;;;;;13.53;7.43;;;25.40;99.90;;;;;;5104302;28;20179;-69
2023/04/16 01:31:53;;;;;;;4.23;1.70;;;25.20;99.90;;;;;;5093795;28;20164;-72
2023/04/16 01:34:20;;;;;;;73.87;49.93;;;25.20;99.90;;;;;;5093577;28;20642;-72
2023/04/16 01:36:48;;;;;;;4.67;1.73;;;25.10;99.90;;;;;;5094867;28;20181;-71
2023/04/16 01:39:18;;;;;;;4.33;2.90;;;24.90;99.90;;;;;;5095919;28;20293;-71
2023/04/16 01:41:45;;;;;;;11.67;7.23;;;24.90;99.90;;;;;;5093658;28;20240;-71
2023/04/16 01:44:13;;;;;;;20.27;8.10;;;24.90;99.90;;;;;;5093557;28;20163;-71
2023/04/16 01:46:42;;;;;;;3.10;1.60;;;25.20;99.90;;;;;;5100998;28;20177;-71
2023/04/16 01:49:10;;;;;;;4.03;2.03;;;25.30;99.90;;;;;;5111957;28;20195;-73
2023/04/16 01:51:37;;;;;;;1.93;1.30;;;25.30;99.90;;;;;;5113628;28;20645;-71
2023/04/16 01:54:05;;;;;;;4.60;1.30;;;25.40;99.90;;;;;;5105654;28;20642;-69
2023/04/16 01:56:33;;;;;;;3.27;1.30;;;25.30;99.90;;;;;;5110317;28;20189;-70
2023/04/16 01:59:01;;;;;;;4.77;2.03;;;25.20;99.90;;;;;;5100413;28;20290;-71
2023/04/16 02:01:29;;;;;;;3.93;1.50;;;25.00;99.90;;;;;;5113732;28;20184;-71
2023/04/16 02:03:57;;;;;;;8.17;1.50;;;25.00;99.90;;;;;;5113359;28;20542;-72
2023/04/16 02:06:26;;;;;;;4.40;1.50;;;25.00;99.90;;;;;;5113772;28;20167;-70
2023/04/16 02:08:54;;;;;;;2.80;1.57;;;25.00;99.90;;;;;;5113423;28;20258;-71
2023/04/16 02:11:21;;;;;;;4.90;1.40;;;25.10;99.90;;;;;;5093802;28;20193;-71
2023/04/16 02:13:49;;;;;;;4.93;1.23;;;25.30;99.90;;;;;;5093017;28;20187;-72
2023/04/16 02:16:17;;;;;;;4.00;1.13;;;25.40;99.90;;;;;;5093207;28;20217;-72
2023/04/16 02:18:45;;;;;;;2.13;1.17;;;25.40;99.90;;;;;;5091271;28;20290;-72
2023/04/16 02:21:12;;;;;;;3.90;1.20;;;25.40;99.90;;;;;;5092892;28;20230;-73
2023/04/16 02:23:40;;;;;;;5.17;1.67;;;25.50;99.90;;;;;;5109289;28;20197;-72
2023/04/16 02:26:08;;;;;;;4.77;1.50;;;25.40;99.90;;;;;;5112493;28;20186;-71
2023/04/16 02:28:36;;;;;;;6.50;1.00;;;25.40;99.90;;;;;;5113367;28;20584;-71
2023/04/16 02:31:03;;;;;;;2.03;1.40;;;25.30;99.90;;;;;;5113279;28;20227;-71
2023/04/16 02:33:31;;;;;;;1.13;1.00;;;25.20;99.90;;;;;;5112757;28;20262;-71
2023/04/16 02:35:59;;;;;;;2.77;1.50;;;25.20;99.90;;;;;;5113020;28;20202;-71
2023/04/16 02:38:27;;;;;;;2.30;1.10;;;25.00;99.90;;;;;;5112960;27;20175;-71
2023/04/16 02:40:55;;;;;;;5.83;1.50;;;24.90;99.90;;;;;;5112941;27;20174;-72
2023/04/16 02:43:22;;;;;;;2.80;1.60;;;24.70;99.90;;;;;;5098681;28;20233;-71
2023/04/16 02:45:50;;;;;;;4.63;1.80;;;24.60;99.90;;;;;;5093776;28;20171;-72
2023/04/16 02:48:18;;;;;;;3.97;1.53;;;24.50;99.90;;;;;;5094354;28;20528;-69
2023/04/16 02:50:45;;;;;;;2.10;1.30;;;24.60;99.90;;;;;;5098594;28;20174;-70
2023/04/16 02:53:13;;;;;;;4.33;1.40;;;24.50;99.90;;;;;;5112836;28;20288;-70
2023/04/16 02:55:41;;;;;;;2.83;1.40;;;24.60;99.90;;;;;;5110971;28;20269;-71
2023/04/16 02:58:09;;;;;;;4.10;1.60;;;24.80;99.90;;;;;;5102230;28;20274;-71
2023/04/16 03:00:38;;;;;;;4.03;1.83;;;25.00;99.90;;;;;;5092308;28;20206;-71
2023/04/16 03:03:06;;;;;;;2.00;1.10;;;25.10;99.90;;;;;;5091821;28;20175;-70
2023/04/16 03:05:34;;;;;;;1.57;1.00;;;25.20;99.90;;;;;;5092155;28;20194;-71
2023/04/16 03:08:56;;;;;;;4.90;1.10;;;25.10;99.90;;;;;;5109480;28;20173;-71
2023/04/16 03:11:24;;;;;;;4.83;1.20;;;25.00;99.90;;;;;;5110555;28;20228;-71
2023/04/16 03:13:52;;;;;;;1.67;1.10;;;25.00;99.90;;;;;;5104744;28;20183;-71
2023/04/16 03:16:20;;;;;;;2.83;1.00;;;25.70;99.90;;;;;;5091788;28;20175;-71
2023/04/16 03:18:48;;;;;;;7.47;1.70;;;26.50;99.90;;;;;;5107940;28;20206;-71
2023/04/16 03:21:15;;;;;;;1.63;0.93;;;26.50;99.90;;;;;;5108260;28;20226;-71
2023/04/16 03:23:43;;;;;;;5.23;1.10;;;27.00;99.90;;;;;;5111923;28;20352;-70
2023/04/16 03:26:11;;;;;;;1.13;0.70;;;27.30;99.90;;;;;;5112315;28;20177;-71
2023/04/16 03:28:39;;;;;;;4.13;0.90;;;26.30;99.90;;;;;;5108282;28;20186;-69
2023/04/16 03:31:06;;;;;;;7.47;0.90;;;26.00;99.90;;;;;;5100235;28;20240;-73
2023/04/16 03:33:34;;;;;;;3.40;0.60;;;26.00;99.90;;;;;;5108196;28;20186;-71
2023/04/16 03:36:02;;;;;;;2.17;0.90;;;26.70;99.90;;;;;;5111873;28;20178;-71
2023/04/16 03:38:30;;;;;;;2.63;0.80;;;26.90;99.90;;;;;;5105414;28;20216;-69
2023/04/16 03:40:57;;;;;;;1.23;0.60;;;26.50;99.90;;;;;;5110869;28;20185;-71
2023/04/16 03:43:28;;;;;;;3.40;0.97;;;26.20;99.90;;;;;;5112105;28;20652;-71
2023/04/16 03:45:56;;;;;;;3.13;0.70;;;26.00;99.90;;;;;;5111753;28;20280;-71
2023/04/16 03:48:24;;;;;;;1.30;0.70;;;26.20;99.90;;;;;;5112108;28;20265;-71
2023/04/16 03:50:55;;;;;;;8.43;0.60;;;26.20;99.90;;;;;;5112018;28;20175;-72
2023/04/16 03:53:23;;;;;;;1.03;0.50;;;25.70;99.90;;;;;;5110300;28;20717;-71
2023/04/16 03:55:52;;;;;;;1.43;0.73;;;25.10;99.90;;;;;;5112015;28;20177;-70
2023/04/16 03:58:20;;;;;;;2.63;0.50;;;24.80;99.90;;;;;;5110448;28;20656;-70
2023/04/16 04:00:48;;;;;;;1.07;0.50;;;24.70;99.90;;;;;;5111487;28;20688;-70
2023/04/16 04:03:16;;;;;;;2.50;0.60;;;24.70;99.90;;;;;;5111750;28;20181;-71
2023/04/16 04:05:44;;;;;;;1.63;0.73;;;24.90;99.90;;;;;;5109008;28;20210;-69
2023/04/16 04:08:12;;;;;;;2.50;0.90;;;25.40;99.90;;;;;;5102335;28;20233;-72
2023/04/16 04:10:40;;;;;;;1.47;0.80;;;25.90;99.90;;;;;;5091163;28;20214;-71
2023/04/16 04:13:11;;;;;;;3.90;0.50;;;26.60;99.90;;;;;;5090074;28;20692;-70
2023/04/16 04:15:39;;;;;;;0.70;0.40;;;26.80;95.90;;;;;;5090906;28;20179;-71
2023/04/16 04:18:06;;;;;;;0.30;0.30;;;26.80;93.10;;;;;;5092347;28;20232;-71
2023/04/16 04:20:38;;;;;;;2.10;0.47;;;26.60;91.80;;;;;;5095488;28;20277;-71
2023/04/16 04:23:06;;;;;;;3.47;0.50;;;26.80;93.10;;;;;;5111428;28;20246;-71
2023/04/16 04:25:34;;;;;;;2.00;0.47;;;27.00;90.90;;;;;;5111598;28;20304;-71
2023/04/16 04:28:04;;;;;;;1.57;0.43;;;27.30;90.40;;;;;;5105315;28;20214;-71
2023/04/16 04:30:43;;;;;;;1.63;0.27;;;27.20;86.90;;;;;;5090736;28;20258;-71
2023/04/16 04:33:13;;;;;;;1.47;0.30;;;27.40;77.40;;;;;;5091466;28;20171;-73
2023/04/16 04:35:41;;;;;;;1.30;0.77;;;27.20;69.70;;;;;;5093010;28;20215;-71
2023/04/16 04:38:12;;;;;;;1.70;0.33;;;26.80;53.80;;;;;;5111134;28;20277;-71
2023/04/16 04:40:46;;;;;;;2.50;0.50;;;26.40;50.30;;;;;;5105055;28;20267;-71
2023/04/16 04:46:36;;;;;;;1.00;0.40;;;26.30;43.90;;;;;;5110534;28;20200;-70
2023/04/16 04:49:07;;;;;;;0.40;0.40;;;26.10;43.80;;;;;;5114131;28;20174;-70
2023/04/16 04:51:38;;;;;;;0.80;0.53;;;26.10;43.50;;;;;;5103088;28;20205;-71
2023/04/16 04:54:05;;;;;;;0.87;0.80;;;26.00;41.50;;;;;;5094541;28;20598;-72
2023/04/16 04:56:33;;;;;;;0.83;0.60;;;25.80;41.70;;;;;;5096455;28;20571;-69
2023/04/16 04:59:01;;;;;;;0.90;0.50;;;25.80;44.40;;;;;;5094641;28;20249;-72
2023/04/16 05:01:29;;;;;;;1.67;0.50;;;25.70;43.30;;;;;;5094246;28;20214;-71
2023/04/16 05:03:57;;;;;;;0.50;0.40;;;25.60;47.20;;;;;;5094469;28;20397;-70
2023/04/16 05:06:25;;;;;;;2.57;0.33;;;25.40;51.20;;;;;;5092456;28;20194;-71
2023/04/16 05:08:54;;;;;;;1.40;0.30;;;25.40;51.20;;;;;;5100670;28;20217;-72
2023/04/16 05:11:22;;;;;;;0.97;0.40;;;25.40;48.80;;;;;;5096650;28;20178;-72
2023/04/16 05:13:50;;;;;;;0.23;0.23;;;25.10;47.90;;;;;;5097169;28;20588;-72
2023/04/16 05:16:17;;;;;;;0.23;0.20;;;25.00;50.30;;;;;;5094647;28;20200;-70
2023/04/16 05:18:45;;;;;;;0.20;0.20;;;24.80;49.10;;;;;;5098352;28;20547;-72
2023/04/16 05:21:13;;;;;;;3.47;0.50;;;24.70;50.10;;;;;;5096634;28;20227;-71
2023/04/16 05:23:41;;;;;;;0.60;0.43;;;24.80;49.40;;;;;;5094049;28;20179;-72
2023/04/16 05:26:08;;;;;;;0.20;0.20;;;24.60;51.90;;;;;;5095529;28;20175;-72
2023/04/16 05:28:36;;;;;;;1.07;0.30;;;24.50;49.80;;;;;;5095631;28;20581;-72
2023/04/16 05:31:04;;;;;;;0.70;0.40;;;24.50;50.60;;;;;;5111065;28;20181;-71
2023/04/16 05:33:32;;;;;;;0.23;0.23;;;24.50;51.10;;;;;;5114363;28;20166;-71
2023/04/16 05:35:59;;;;;;;0.73;0.40;;;24.20;49.10;;;;;;5114243;28;20608;-72
2023/04/16 05:38:27;;;;;;;3.03;0.50;;;24.30;51.00;;;;;;5113980;28;20946;-70
2023/04/16 05:40:55;;;;;;;0.60;0.40;;;24.40;53.40;;;;;;5114086;28;20209;-71
2023/04/16 05:43:23;;;;;;;0.37;0.20;;;24.50;51.60;;;;;;5114206;28;20575;-71
2023/04/16 05:45:51;;;;;;;0.47;0.37;;;24.40;53.50;;;;;;5113354;28;20278;-71
2023/04/16 05:48:19;;;;;;;0.30;0.20;;;24.50;54.50;;;;;;5114150;28;20240;-71
2023/04/16 05:50:46;;;;;;;0.20;0.20;;;24.30;50.80;;;;;;5114111;28;20169;-71
2023/04/16 05:53:15;;;;;;;1.17;0.23;;;24.00;54.30;;;;;;5113551;28;20565;-70
2023/04/16 05:55:43;;;;;;;0.60;0.40;;;24.10;55.90;;;;;;5114082;28;20262;-71
2023/04/16 05:58:10;;;;;;;0.30;0.30;;;24.10;55.20;;;;;;5113762;28;20174;-72
2023/04/16 06:00:38;;;;;;;0.57;0.30;;;24.00;54.20;;;;;;5112768;28;20213;-71
2023/04/16 06:03:06;;;;;;;0.20;0.20;;;23.90;53.10;;;;;;5113646;28;20202;-72
2023/04/16 06:05:34;;;;;;;0.20;0.20;;;23.70;54.50;;;;;;5113691;28;20174;-70
2023/04/16 06:08:02;;;;;;;0.60;0.30;;;23.50;56.40;;;;;;5113148;28;20627;-73
2023/04/16 06:10:30;;;;;;;0.20;0.20;;;23.50;54.90;;;;;;5113738;28;20178;-71
2023/04/16 06:12:57;;;;;;;1.97;0.30;;;23.30;53.40;;;;;;5113375;28;20175;-71
2023/04/16 06:15:25;;;;;;;0.37;0.30;;;23.20;54.80;;;;;;5113208;28;20197;-71
2023/04/16 06:17:53;;;;;;;0.93;0.20;;;23.10;57.10;;;;;;5113381;28;20533;-70
2023/04/16 06:20:22;;;;;;;2.17;0.30;;;23.10;58.00;;;;;;5113206;28;20238;-71
2023/04/16 06:22:50;;;;;;;0.30;0.30;;;23.00;59.70;;;;;;5112894;28;20212;-71
2023/04/16 06:25:17;;;;;;;0.93;0.40;;;22.90;59.10;;;;;;5112000;28;20182;-72
2023/04/16 06:27:45;;;;;;;0.30;0.30;;;22.90;61.70;;;;;;5111815;28;20178;-70
2023/04/16 06:30:14;;;;;;;0.27;0.27;;;22.90;64.80;;;;;;5112928;28;20175;-72
2023/04/16 06:32:45;;;;;;;0.40;0.40;;;22.90;62.40;;;;;;5113182;28;20167;-71
2023/04/16 06:35:13;;;;;;;0.30;0.20;;;22.90;60.00;;;;;;5113308;28;20178;-70
2023/04/16 06:37:41;;;;;;;0.40;0.40;;;22.80;61.20;;;;;;5112623;28;20181;-71
2023/04/16 06:40:09;;;;;;;0.40;0.40;;;22.70;60.10;;;;;;5112829;28;20288;-70
2023/04/16 06:42:37;;;;;;;0.83;0.40;;;22.80;58.90;;;;;;5112982;28;20537;-71
2023/04/16 06:45:05;;;;;;;0.30;0.30;;;22.80;58.70;;;;;;5112484;28;20189;-71
2023/04/16 06:47:33;;;;;;;0.30;0.30;;;22.80;56.50;;;;;;5113017;28;20174;-72
2023/04/16 06:50:01;;;;;;;0.30;0.30;;;22.80;54.70;;;;;;5112698;27;20182;-73
2023/04/16 06:52:29;;;;;;;1.70;0.57;;;22.80;54.50;;;;;;5112243;28;20227;-71
2023/04/16 06:54:57;;;;;;;0.80;0.70;;;22.60;53.30;;;;;;5112554;28;20175;-70
2023/04/16 06:57:25;;;;;;;0.90;0.57;;;22.60;54.40;;;;;;5112804;28;20175;-72
2023/04/16 06:59:53;;;;;;;1.60;1.10;;;22.50;54.40;;;;;;5112124;28;20214;-72
2023/04/16 07:02:21;;;;;;;1.40;1.03;;;22.40;53.20;;;;;;5112457;28;20208;-72
2023/04/16 07:04:51;;;;;;;0.57;0.50;;;22.30;52.80;;;;;;5112376;28;20190;-72
2023/04/16 07:07:19;;;;;;;0.93;0.40;;;22.10;52.70;;;;;;5112058;28;20166;-71
2023/04/16 07:09:47;;;;;;;1.53;0.70;;;22.00;52.80;;;;;;5114355;28;20268;-70
2023/04/16 07:12:15;;;;;;;0.67;0.50;;;21.90;54.00;;;;;;5112158;28;20167;-72
2023/04/16 07:14:43;;;;;;;0.67;0.40;;;21.80;53.60;;;;;;5112951;28;20174;-73
2023/04/16 07:17:11;;;;;;;1.37;0.60;;;21.70;51.80;;;;;;5113803;28;20534;-70
2023/04/16 07:19:38;;;;;;;0.40;0.40;;;21.60;52.60;;;;;;5112585;28;20668;-73
2023/04/16 07:22:07;;;;;;;0.53;0.40;;;21.50;52.30;;;;;;5111678;28;20639;-74
2023/04/16 07:24:35;;;;;;;0.47;0.40;;;21.30;54.10;;;;;;5112127;28;20163;-73
2023/04/16 07:27:05;;;;;;;0.57;0.50;;;21.20;53.70;;;;;;5112261;28;20177;-73
2023/04/16 07:29:33;;;;;;;0.47;0.47;;;21.10;54.20;;;;;;5111646;28;20704;-72
2023/04/16 07:32:04;;;;;;;0.43;0.30;;;21.00;54.70;;;;;;5112179;28;20174;-72
2023/04/16 07:34:32;;;;;;;1.37;0.30;;;21.00;53.90;;;;;;5112240;28;20174;-73
2023/04/16 07:37:00;;;;;;;0.73;0.40;;;20.90;54.50;;;;;;5111727;28;20175;-74
2023/04/16 07:39:28;;;;;;;1.70;0.40;;;20.80;53.40;;;;;;5111981;28;20684;-70
2023/04/16 07:41:55;;;;;;;0.40;0.40;;;20.70;54.20;;;;;;5111999;28;20173;-72
2023/04/16 07:44:23;;;;;;;0.93;0.30;;;20.60;54.90;;;;;;5111383;28;20184;-72
2023/04/16 07:46:54;;;;;;;4.50;0.40;;;20.60;53.70;;;;;;5112021;28;20629;-70
2023/04/16 07:49:21;;;;;;;0.30;0.30;;;20.50;53.80;;;;;;5111894;28;20166;-71
2023/04/16 07:51:49;;;;;;;1.23;0.40;;;20.50;52.40;;;;;;5111770;28;20211;-73
2023/04/16 07:54:20;;;;;;;1.40;0.50;;;20.40;53.20;;;;;;5110734;28;20699;-71
2023/04/16 07:56:48;;;;;;;0.50;0.50;;;20.40;54.40;;;;;;5110531;28;20189;-72
2023/04/16 07:59:15;;;;;;;0.80;0.60;;;20.20;55.00;;;;;;5110553;28;20210;-71
2023/04/16 08:01:43;;;;;;;0.70;0.50;;;20.10;56.90;;;;;;5111487;28;20541;-71
2023/04/16 08:04:10;;;;;;;1.23;0.47;;;19.90;59.00;;;;;;5110178;28;20262;-71
2023/04/16 08:06:38;;;;;;;1.40;0.40;;;19.80;59.80;;;;;;5111024;28;20179;-72
2023/04/16 08:09:05;;;;;;;0.30;0.30;;;19.60;62.90;;;;;;5111428;28;20304;-72
2023/04/16 08:11:33;;;;;;;1.43;0.37;;;19.60;61.50;;;;;;5111291;28;20183;-74
2023/04/16 08:14:00;;;;;;;2.07;0.40;;;19.70;61.40;;;;;;5111029;28;20166;-72
2023/04/16 08:16:28;;;;;;;0.63;0.40;;;19.60;62.80;;;;;;5111413;28;20184;-71
2023/04/16 08:18:55;;;;;;;1.93;0.40;;;19.50;62.20;;;;;;5111137;28;20695;-72
2023/04/16 08:21:22;;;;;;;0.93;0.47;;;19.50;62.90;;;;;;5110612;28;20310;-72
2023/04/16 08:23:53;;;;;;;1.40;0.50;;;19.40;64.30;;;;;;5113437;28;20167;-72
2023/04/16 08:26:25;;;;;;;0.40;0.40;;;19.30;66.50;;;;;;5115087;28;20230;-73
2023/04/16 08:28:52;;;;;;;2.10;0.50;;;19.20;68.40;;;;;;5114554;28;20174;-71
2023/04/16 08:31:20;;;;;;;0.93;0.50;;;19.10;71.30;;;;;;5109514;28;20258;-71
2023/04/16 08:33:48;;;;;;;0.80;0.50;;;19.00;73.50;;;;;;5096625;28;20717;-70
2023/04/16 08:36:15;;;;;;;4.63;0.50;;;18.90;74.30;;;;;;5097843;28;20175;-70
2023/04/16 08:38:45;;;;;;;1.97;0.43;;;18.80;78.30;;;;;;5094336;28;20235;-70
2023/04/16 08:41:13;;;;;;;0.60;0.60;;;18.70;77.40;;;;;;5094640;28;20680;-70
2023/04/16 08:43:47;;;;;;;0.87;0.50;;;18.70;76.30;;;;;;5101713;28;20208;-69
2023/04/16 08:46:16;;;;;;;1.57;0.50;;;18.70;80.80;;;;;;5114902;28;20174;-69
2023/04/16 08:48:48;;;;;;;0.53;0.40;;;18.60;80.50;;;;;;5114676;28;20186;-70
2023/04/16 08:51:18;;;;;;;1.07;0.37;;;18.50;82.30;;;;;;5114413;28;20186;-70
2023/04/16 08:53:53;;;;;;;0.63;0.50;;;18.40;84.20;;;;;;5114639;28;20167;-71
2023/04/16 08:56:22;;;;;;;0.40;0.40;;;18.50;85.10;;;;;;5113017;28;20522;-72
2023/04/16 08:58:52;;;;;;;0.93;0.50;;;18.50;85.50;;;;;;5098843;28;20202;-71
2023/04/16 09:01:20;;;;;;;2.10;0.50;;;18.40;88.00;;;;;;5093874;28;20212;-69
2023/04/16 09:03:48;;;;;;;1.30;0.60;;;18.30;90.10;;;;;;5094046;28;20175;-70
2023/04/16 09:06:17;;;;;;;1.90;0.43;;;18.30;90.20;;;;;;5102577;28;20668;-71
2023/04/16 09:08:48;;;;;;;0.40;0.40;;;18.30;91.10;;;;;;5098876;28;20193;-71
2023/04/16 09:11:18;;;;;;;3.27;0.67;;;18.20;92.60;;;;;;5094215;28;20209;-71
2023/04/16 09:13:46;;;;;;;0.53;0.53;;;18.20;96.60;;;;;;5108077;28;20257;-71
2023/04/16 09:16:14;;;;;;;1.40;0.90;;;17.90;98.00;;;;;;5108998;28;20306;-70
2023/04/16 09:18:46;;;;;;;4.00;0.70;;;17.90;98.10;;;;;;5096584;27;20270;-69
2023/04/16 09:21:14;;;;;;;0.97;0.50;;;17.80;99.30;;;;;;5101541;28;20257;-69
2023/04/16 09:23:46;;;;;;;0.80;0.60;;;17.80;99.90;;;;;;5114985;28;20178;-70
2023/04/16 09:26:16;;;;;;;0.90;0.50;;;17.70;99.90;;;;;;5095965;28;20191;-70
2023/04/16 09:28:50;;;;;;;1.47;0.90;;;17.60;99.90;;;;;;5111451;28;20217;-71
2023/04/16 09:31:19;;;;;;;2.73;0.70;;;17.60;99.90;;;;;;5114177;28;20190;-71
2023/04/16 09:34:06;;;;;;;2.00;1.07;;;17.50;99.90;;;;;;5108097;27;20183;-71
2023/04/16 09:36:35;;;;;;;1.13;0.63;;;17.40;99.90;;;;;;5114370;28;20206;-70
2023/04/16 09:39:03;;;;;;;0.60;0.60;;;17.10;99.90;;;;;;5114108;27;20207;-70
2023/04/16 09:41:38;;;;;;;2.00;1.00;;;17.10;99.90;;;;;;5113766;28;21036;-70
2023/04/16 09:44:06;;;;;;;1.17;0.80;;;17.00;99.90;;;;;;5114473;28;20182;-70
2023/04/16 09:46:41;;;;;;;1.47;0.80;;;16.80;99.90;;;;;;5096612;28;20187;-69
2023/04/16 09:49:16;;;;;;;1.40;0.67;;;16.50;99.90;;;;;;5112669;28;20512;-68
2023/04/16 09:51:51;;;;;;;2.17;1.13;;;16.50;99.90;;;;;;5114621;28;20697;-69
2023/04/16 09:54:20;;;;;;;1.27;0.90;;;16.50;99.90;;;;;;5114838;28;20178;-69
2023/04/16 09:56:47;;;;;;;0.57;0.53;;;16.50;99.90;;;;;;5111063;28;20219;-71
2023/04/16 09:59:21;;;;;;;6.03;0.80;;;16.40;99.90;;;;;;5092935;28;20207;-70
2023/04/16 10:01:51;;;;;;;1.47;0.80;;;16.50;99.90;;;;;;5094252;28;20190;-70
2023/04/16 10:04:21;;;;;;;1.73;0.70;;;16.60;99.90;;;;;;5093651;28;20179;-70
2023/04/16 10:07:17;;;;;;;0.80;0.70;;;16.80;99.90;;;;;;5094100;28;20530;-70
2023/04/16 10:09:47;;;;;;;1.60;0.83;;;16.80;99.90;;;;;;5080932;28;20198;-68
2023/04/16 10:12:15;;;;;;;0.70;0.60;;;16.70;99.90;;;;;;5093935;28;20258;-69
2023/04/16 10:14:43;;;;;;;2.90;0.93;;;16.50;99.90;;;;;;5093698;28;20527;-70
2023/04/16 10:17:10;;;;;;;1.83;0.90;;;16.30;99.90;;;;;;5094032;28;20192;-71
2023/04/16 10:19:38;;;;;;;1.97;1.00;;;16.10;99.90;;;;;;5093751;28;20215;-70
2023/04/16 10:22:06;;;;;;;1.27;0.67;;;16.00;99.90;;;;;;5093486;28;20226;-70
2023/04/16 10:24:34;;;;;;;3.10;0.90;;;15.90;99.90;;;;;;5093732;28;20175;-70
2023/04/16 10:27:02;;;;;;;1.80;0.90;;;15.90;99.90;;;;;;5093668;28;20631;-70
2023/04/16 10:29:31;;;;;;;3.63;1.00;;;15.80;99.90;;;;;;5093700;28;20236;-70
2023/04/16 10:31:59;;;;;;;3.87;1.10;;;15.80;99.90;;;;;;5093556;28;20197;-70
2023/04/16 10:34:27;;;;;;;2.00;0.70;;;15.70;99.90;;;;;;5093541;28;20262;-70
2023/04/16 10:36:55;;;;;;;2.37;0.80;;;15.60;99.90;;;;;;5092735;28;20182;-70
2023/04/16 10:39:24;;;;;;;1.90;0.90;;;15.50;99.90;;;;;;5093738;28;20206;-70
2023/04/16 10:42:10;;;;;;;0.77;0.70;;;15.30;99.90;;;;;;5093132;28;20269;-71
2023/04/16 10:44:39;;;;;;;0.97;0.70;;;15.30;99.90;;;;;;5093141;28;20254;-70
2023/04/16 10:47:11;;;;;;;1.83;1.00;;;15.30;99.90;;;;;;5093214;28;20175;-70
2023/04/16 10:49:39;;;;;;;1.50;0.97;;;15.10;99.90;;;;;;5093385;28;20178;-69
2023/04/16 10:52:17;;;;;;;1.37;0.90;;;15.10;99.90;;;;;;5093425;28;20181;-70
2023/04/16 10:54:49;;;;;;;1.00;0.60;;;15.00;99.90;;;;;;5093178;28;20591;-70
2023/04/16 10:57:19;;;;;;;1.27;0.77;;;14.90;99.90;;;;;;5093263;28;20173;-69
2023/04/16 10:59:47;;;;;;;5.00;1.17;;;14.90;99.90;;;;;;5093147;28;20670;-70
2023/04/16 11:02:17;;;;;;;1.20;1.00;;;14.80;99.90;;;;;;5093262;28;20210;-69
2023/04/16 11:04:48;;;;;;;1.80;1.10;;;14.80;99.90;;;;;;5092837;28;20703;-71
2023/04/16 11:07:30;;;;;;;3.50;1.20;;;14.80;99.90;;;;;;5093698;28;20177;-69
2023/04/16 11:10:06;;;;;;;12.93;8.10;;;14.70;99.90;;;;;;5093128;28;20175;-70
2023/04/16 11:12:45;;;;;;;6.00;4.17;;;14.80;99.90;;;;;;5091806;28;20175;-69
2023/04/16 11:15:14;;;;;;;5.50;3.57;;;14.60;99.90;;;;;;5092766;28;20216;-70
2023/04/16 11:17:51;;;;;;;4.30;3.23;;;14.50;99.90;;;;;;5092858;28;20181;-69
2023/04/16 11:20:26;;;;;;;5.17;2.77;;;14.40;99.90;;;;;;5092704;28;20231;-71
2023/04/16 11:22:55;;;;;;;6.13;3.50;;;14.40;99.90;;;;;;5092526;28;20174;-70
2023/04/16 11:25:32;;;;;;;5.77;2.97;;;14.30;99.90;;;;;;5092808;28;20210;-69
2023/04/16 11:28:01;;;;;;;4.47;1.70;;;14.40;99.90;;;;;;5093097;28;20257;-71
2023/04/16 11:30:36;;;;;;;5.00;1.90;;;14.40;99.90;;;;;;5099037;28;20386;-70
2023/04/16 11:33:21;;;;;;;2.87;1.60;;;14.30;99.90;;;;;;5093131;28;20227;-70
2023/04/16 11:35:57;;;;;;;4.33;1.50;;;14.30;99.90;;;;;;5092577;28;20646;-69
2023/04/16 11:38:39;;;;;;;2.50;1.50;;;14.30;99.90;;;;;;5092831;28;20673;-69
2023/04/16 11:41:07;;;;;;;3.87;1.70;;;14.30;99.90;;;;;;5092416;28;20232;-69
2023/04/16 11:43:35;;;;;;;3.83;1.57;;;14.20;99.90;;;;;;5092892;28;20187;-70
2023/04/16 11:46:05;;;;;;;4.03;1.30;;;14.10;99.90;;;;;;5092723;28;20173;-69
2023/04/16 11:48:50;;;;;;;2.27;1.63;;;14.20;99.90;;;;;;5099965;28;20183;-69
2023/04/16 11:51:19;;;;;;;3.47;1.10;;;14.30;99.90;;;;;;5107590;28;20591;-70
2023/04/16 11:53:54;;;;;;;2.60;0.90;;;14.70;99.90;;;;;;5092861;28;20186;-71
2023/04/16 11:56:34;;;;;;;1.97;0.87;;;15.00;99.90;;;;;;5092290;28;20174;-70
2023/04/16 11:59:12;;;;;;;1.20;1.00;;;15.40;99.90;;;;;;5095189;28;20194;-70
2023/04/16 12:01:41;;;;;;;0.60;0.57;;;15.90;99.90;;;;;;5096201;28;20652;-70
2023/04/16 12:04:09;;;;;;;0.83;0.50;;;16.20;99.90;;;;;;5096630;28;20171;-71
2023/04/16 12:06:36;;;;;;;1.30;0.50;;;16.30;99.90;;;;;;5095121;28;20536;-71
2023/04/16 12:09:23;;;;;;;0.97;0.60;;;16.40;99.90;;;;;;5096507;28;20179;-72
2023/04/16 12:11:50;;;;;;;1.60;0.63;;;16.50;99.90;;;;;;5096543;28;20186;-68
2023/04/16 12:14:18;;;;;;;0.40;0.40;;;16.60;99.90;;;;;;5096528;28;20176;-70
2023/04/16 12:16:45;;;;;;;1.20;0.60;;;16.70;99.90;;;;;;5096459;28;20266;-68
2023/04/16 12:19:14;;;;;;;1.50;0.50;;;16.80;99.90;;;;;;5094641;28;20222;-69
2023/04/16 12:21:46;;;;;;;0.47;0.47;;;16.80;99.90;;;;;;5096049;28;20219;-69
2023/04/16 12:24:16;;;;;;;1.30;0.40;;;16.90;99.90;;;;;;5096336;28;20569;-70
2023/04/16 12:26:51;;;;;;;1.37;0.50;;;16.90;99.90;;;;;;5096116;28;20167;-69
2023/04/16 12:29:23;;;;;;;2.97;0.53;;;16.90;99.90;;;;;;5096322;28;20254;-70
2023/04/16 12:31:52;;;;;;;0.73;0.40;;;16.90;99.90;;;;;;5095796;28;20177;-69
2023/04/16 12:34:21;;;;;;;1.53;0.50;;;17.00;99.90;;;;;;5096105;28;20673;-70
2023/04/16 12:37:03;;;;;;;0.57;0.50;;;17.00;99.90;;;;;;5094391;28;20192;-69
2023/04/16 12:39:30;;;;;;;1.17;0.30;;;17.00;99.90;;;;;;5097924;28;20221;-68
2023/04/16 12:41:58;;;;;;;0.80;0.43;;;16.90;99.90;;;;;;5107426;28;20186;-69
2023/04/16 12:44:28;;;;;;;0.57;0.40;;;16.90;99.90;;;;;;5115890;28;20178;-68
2023/04/16 12:46:55;;;;;;;2.97;0.47;;;16.80;99.90;;;;;;5116303;28;20174;-69
2023/04/16 12:49:23;;;;;;;0.90;0.50;;;16.70;99.90;;;;;;5116145;28;20181;-70
2023/04/16 12:51:51;;;;;;;0.83;0.60;;;16.70;99.90;;;;;;5116187;28;20257;-69
2023/04/16 12:54:18;;;;;;;1.50;0.50;;;16.60;99.90;;;;;;5116289;28;20253;-69
2023/04/16 12:56:46;;;;;;;0.40;0.40;;;16.70;99.90;;;;;;5116104;28;20167;-69
2023/04/16 12:59:13;;;;;;;0.40;0.40;;;16.60;99.90;;;;;;5115649;28;20319;-70